Overview Statistics Trail Chart Weather Telemetry Raw packets
 

This is the latest recevied weather packets stored in our database for station/object KQ4WWD. If no packets are shown the sender has not sent any weather packets the latest 10 day(s).

<< 45 46 47 48 49 50 51 >>
Time Temp. Humidity Pressure Rain* Wind** Luminosity Snow
1788308572 25.56° C 94% 1015.7 hPa 0 mm - 0 W/m² -
1788308268 25.56° C 94% 1015.7 hPa 0 mm - 0 W/m² -
1788307964 25.56° C 94% 1015.8 hPa 0 mm - 0 W/m² -
1788307663 25.56° C 94% 1015.8 hPa 0 mm - 0 W/m² -
1788307358 25.56° C 94% 1015.9 hPa 0 mm - 0 W/m² -
1788307059 25.56° C 94% 1016.1 hPa 0 mm - 0 W/m² -
1788306754 25.56° C 94% 1015.8 hPa 0 mm - 0 W/m² -
1788306453 25.56° C 94% 1015.9 hPa 0 mm - 0 W/m² -
1788306153 25.56° C 94% 1016.1 hPa 0 mm - 2 W/m² -
1788305848 25.56° C 93% 1016 hPa 0 mm - 4 W/m² -
1788305544 25.56° C 93% 1015.8 hPa 0 mm - 10 W/m² -
1788305244 25.56° C 93% 1015.8 hPa 0 mm - 13 W/m² -
1788304940 26.11° C 93% 1015.8 hPa 0 mm - 11 W/m² -
1788304636 25.56° C 93% 1015.7 hPa 0 mm - 10 W/m² -
1788304332 25.56° C 94% 1015.6 hPa 0 mm - 12 W/m² -
1788304027 25.56° C 93% 1015.3 hPa 0 mm - 12 W/m² -
1788303722 25.56° C 93% 1015.4 hPa 1.27 mm - 13 W/m² -
1788303417 25.56° C 93% 1015.6 hPa 1.27 mm - 16 W/m² -
1788303137 25.56° C 93% 1015.6 hPa 6.1 mm - 16 W/m² -
1788302813 25.56° C 93% 1015.5 hPa 30.73 mm - 16 W/m² -
1788302509 25.56° C 92% 1015.8 hPa 36.58 mm - 16 W/m² -
1788302204 26.67° C 90% 1015.7 hPa 14.99 mm - 10 W/m² -
1788301899 27.22° C 89% 1015.8 hPa 0 mm - 7 W/m² -
1788301596 27.22° C 89% 1015.7 hPa 0 mm - 12 W/m² -
1788301291 27.78° C 88% 1015.8 hPa 0 mm - 41 W/m² -

* Rain latest hour (hover to see other rain measurements)
** Current wind speed in m/s (hover to see current wind gust speed)